Time;durP1;ratioP1;P1;durP2;ratioP2;P2;SDS_P1;SDS_P2;PMS_P1;PMS_P2;Temp;Humidity;BMP_temperature;BMP_pressure;BME280_temperature;BME280_humidity;BME280_pressure;Samples;Min_cycle;Max_cycle;Signal;HPM_P1;HPM_P2
2023/01/14 00:01:18;;;;;;;6.30;1.20;;;5.20;99.90;;;;;;5067274;28;20032;-76
2023/01/14 00:03:45;;;;;;;3.88;1.30;;;5.20;99.90;;;;;;5063175;28;20020;-76
2023/01/14 00:06:13;;;;;;;6.78;1.63;;;5.10;99.90;;;;;;5065919;28;20033;-76
2023/01/14 00:08:40;;;;;;;4.30;1.15;;;5.20;99.90;;;;;;5064703;28;20086;-76
2023/01/14 00:11:08;;;;;;;9.48;2.13;;;5.20;99.90;;;;;;5062333;28;20063;-76
2023/01/14 00:13:36;;;;;;;5.50;1.40;;;5.20;99.90;;;;;;5066127;28;20423;-76
2023/01/14 00:16:03;;;;;;;3.03;1.13;;;5.20;99.90;;;;;;5067388;28;20029;-76
2023/01/14 00:18:32;;;;;;;6.68;1.33;;;5.20;99.90;;;;;;5055174;28;20033;-77
2023/01/14 00:21:12;;;;;;;5.10;1.33;;;5.10;99.90;;;;;;5068544;28;20079;-76
2023/01/14 00:23:39;;;;;;;2.42;0.88;;;5.10;99.90;;;;;;5060426;28;20039;-77
2023/01/14 00:26:09;;;;;;;5.47;1.20;;;5.10;99.90;;;;;;5069589;28;20090;-77
2023/01/14 00:28:35;;;;;;;6.88;0.98;;;5.20;99.90;;;;;;5065151;28;20046;-77
2023/01/14 00:31:10;;;;;;;8.05;1.10;;;5.10;99.90;;;;;;5064433;28;20051;-76
2023/01/14 00:33:37;;;;;;;5.60;1.35;;;5.10;99.90;;;;;;5034079;28;20036;-76
2023/01/14 00:36:05;;;;;;;5.53;1.63;;;5.10;99.90;;;;;;5052971;28;20565;-77
2023/01/14 00:38:30;;;;;;;4.35;0.93;;;5.10;99.90;;;;;;5066123;28;20021;-77
2023/01/14 00:41:07;;;;;;;4.82;1.00;;;5.00;99.90;;;;;;5052982;28;20117;-77
2023/01/14 00:43:34;;;;;;;4.10;1.08;;;5.00;99.90;;;;;;5069164;28;20024;-77
2023/01/14 00:46:01;;;;;;;4.55;1.30;;;5.00;99.90;;;;;;5070847;28;20067;-76
2023/01/14 00:48:27;;;;;;;8.35;1.45;;;5.00;99.90;;;;;;5069318;28;20028;-77
2023/01/14 00:50:54;;;;;;;5.55;1.70;;;5.00;99.90;;;;;;5071366;28;20068;-77
2023/01/14 00:53:21;;;;;;;4.10;0.65;;;5.00;99.90;;;;;;5071443;28;20035;-77
2023/01/14 00:55:46;;;;;;;5.10;1.00;;;5.00;99.90;;;;;;5049669;28;20056;-77
2023/01/14 00:58:12;;;;;;;5.75;1.10;;;5.00;99.90;;;;;;5054796;28;20064;-76
2023/01/14 01:00:39;;;;;;;4.75;1.08;;;5.00;99.90;;;;;;5057117;28;20569;-76
2023/01/14 01:03:05;;;;;;;3.90;1.00;;;5.00;99.90;;;;;;5047530;28;20027;-77
2023/01/14 01:05:35;;;;;;;5.60;1.20;;;4.90;99.90;;;;;;5036927;28;20404;-77
2023/01/14 01:08:01;;;;;;;4.70;1.00;;;4.90;99.90;;;;;;5069388;28;20143;-76
2023/01/14 01:10:27;;;;;;;8.52;2.03;;;4.90;99.90;;;;;;5045446;28;20033;-76
2023/01/14 01:12:53;;;;;;;7.68;1.30;;;4.90;99.90;;;;;;5065974;28;20040;-77
2023/01/14 01:15:19;;;;;;;9.13;1.20;;;4.90;99.90;;;;;;5038694;28;20405;-77
2023/01/14 01:17:45;;;;;;;7.50;1.15;;;4.90;99.90;;;;;;5067540;28;20115;-77
2023/01/14 01:20:13;;;;;;;5.68;1.17;;;4.90;99.90;;;;;;5054912;28;20040;-76
2023/01/14 01:22:39;;;;;;;3.88;0.90;;;4.80;99.90;;;;;;5052087;28;20024;-76
2023/01/14 01:25:05;;;;;;;7.38;1.35;;;4.80;99.90;;;;;;5070423;28;20115;-76
2023/01/14 01:27:31;;;;;;;5.43;1.33;;;4.90;99.90;;;;;;5051459;28;20090;-77
2023/01/14 01:29:56;;;;;;;4.43;1.00;;;4.80;99.90;;;;;;5056052;28;20480;-77
2023/01/14 01:32:24;;;;;;;3.38;1.08;;;4.80;99.90;;;;;;5058194;28;20024;-77
2023/01/14 01:34:50;;;;;;;16.35;1.50;;;4.80;99.90;;;;;;5057402;28;20409;-77
2023/01/14 01:37:16;;;;;;;4.25;0.90;;;4.80;99.90;;;;;;5055661;28;20056;-77
2023/01/14 01:39:42;;;;;;;4.32;1.10;;;4.80;99.90;;;;;;5057041;28;20081;-76
2023/01/14 01:42:15;;;;;;;4.15;1.30;;;4.80;99.90;;;;;;5070548;28;20016;-77
2023/01/14 01:44:41;;;;;;;7.25;1.08;;;4.80;99.90;;;;;;5064284;28;20051;-76
2023/01/14 01:47:08;;;;;;;3.28;1.27;;;4.80;99.90;;;;;;5048642;28;20090;-76
2023/01/14 01:49:36;;;;;;;4.15;1.15;;;4.80;99.90;;;;;;5043805;28;20035;-76
2023/01/14 01:52:11;;;;;;;5.18;0.98;;;4.80;99.90;;;;;;5069647;28;20056;-76
2023/01/14 01:54:48;;;;;;;5.93;1.30;;;4.80;99.90;;;;;;5069913;28;20057;-76
2023/01/14 01:57:16;;;;;;;6.32;0.98;;;4.80;99.90;;;;;;5050756;28;20637;-76
2023/01/14 01:59:47;;;;;;;5.85;1.05;;;4.80;99.90;;;;;;5051217;28;20420;-74
2023/01/14 02:02:14;;;;;;;8.07;1.08;;;4.80;99.90;;;;;;5047662;28;20033;-75
2023/01/14 02:04:41;;;;;;;6.93;1.00;;;4.80;99.90;;;;;;5068441;28;20021;-76
2023/01/14 02:07:20;;;;;;;5.45;1.40;;;4.90;99.90;;;;;;5051331;28;20032;-74
2023/01/14 02:09:49;;;;;;;7.75;1.10;;;4.90;99.90;;;;;;5066224;28;20029;-75
2023/01/14 02:12:37;;;;;;;6.72;1.42;;;4.90;99.90;;;;;;5053432;28;20117;-77
2023/01/14 02:15:09;;;;;;;9.07;1.17;;;4.80;99.90;;;;;;5049089;28;20028;-77
2023/01/14 02:18:02;;;;;;;4.38;1.30;;;4.80;99.90;;;;;;5050879;28;20031;-76
2023/01/14 02:20:38;;;;;;;5.00;1.38;;;4.80;99.90;;;;;;5051570;28;20028;-77
2023/01/14 02:23:32;;;;;;;3.83;1.75;;;4.90;99.90;;;;;;5068710;28;20032;-76
2023/01/14 02:26:14;;;;;;;7.53;2.15;;;4.80;99.90;;;;;;5066350;28;20029;-76
2023/01/14 02:29:04;;;;;;;9.27;2.42;;;4.80;99.90;;;;;;5068678;28;20023;-77
2023/01/14 02:31:52;;;;;;;5.03;1.10;;;4.80;99.90;;;;;;5072181;28;20119;-76
2023/01/14 02:34:27;;;;;;;6.88;1.75;;;4.80;99.90;;;;;;5054766;28;20035;-76
2023/01/14 02:36:58;;;;;;;;;;;4.80;99.90;;;;;;5055465;28;20052;-77
2023/01/14 02:39:35;;;;;;;3.25;1.08;;;4.80;99.90;;;;;;5053472;28;20293;-77
2023/01/14 02:45:35;;;;;;;4.30;0.90;;;4.80;99.90;;;;;;5062896;28;20123;-76
2023/01/14 02:48:03;;;;;;;6.63;1.00;;;4.80;99.90;;;;;;5039094;28;20581;-77
2023/01/14 02:50:35;;;;;;;6.97;1.42;;;4.80;99.90;;;;;;5054299;28;20040;-76
2023/01/14 02:53:11;;;;;;;7.28;1.38;;;4.80;99.90;;;;;;5053492;28;20029;-77
2023/01/14 02:55:38;;;;;;;6.93;1.35;;;4.80;99.90;;;;;;5054157;28;20538;-75
2023/01/14 02:58:24;;;;;;;5.10;1.17;;;4.80;99.90;;;;;;5054400;28;20111;-76
2023/01/14 03:01:15;;;;;;;6.45;1.52;;;4.80;99.90;;;;;;5064380;28;20036;-77
2023/01/14 03:03:47;;;;;;;4.88;1.38;;;4.80;99.90;;;;;;5053312;28;20032;-77
2023/01/14 03:06:42;;;;;;;7.05;2.75;;;4.80;99.90;;;;;;5053579;28;20017;-77
2023/01/14 03:09:46;;;;;;;9.43;2.20;;;4.80;99.90;;;;;;5068302;28;20048;-76
2023/01/14 03:12:20;;;;;;;8.32;2.17;;;4.80;99.90;;;;;;5072328;28;20060;-76
2023/01/14 03:15:24;;;;;;;5.28;1.67;;;4.80;99.90;;;;;;5050088;28;20024;-76
2023/01/14 03:17:55;;;;;;;6.80;1.25;;;4.80;99.90;;;;;;5047603;28;20043;-76
2023/01/14 03:20:26;;;;;;;2.22;1.08;;;4.80;99.90;;;;;;5068338;28;20064;-74
2023/01/14 03:22:55;;;;;;;7.35;1.48;;;4.70;99.90;;;;;;5067989;28;20025;-76
2023/01/14 03:25:24;;;;;;;7.72;2.10;;;4.80;99.90;;;;;;5068366;28;20103;-76
2023/01/14 03:27:57;;;;;;;7.47;1.40;;;4.80;99.90;;;;;;5040551;28;20029;-76
2023/01/14 03:30:33;;;;;;;6.55;1.30;;;4.80;99.90;;;;;;5069085;28;20020;-75
2023/01/14 03:33:27;;;;;;;6.40;2.60;;;4.70;99.90;;;;;;5054820;28;20032;-77
2023/01/14 03:35:55;;;;;;;10.85;1.58;;;4.70;99.90;;;;;;5050245;28;20048;-76
2023/01/14 03:38:27;;;;;;;7.97;1.80;;;4.70;99.90;;;;;;5068351;28;20046;-76
2023/01/14 03:40:56;;;;;;;9.98;1.75;;;4.70;99.90;;;;;;5067614;28;20031;-76
2023/01/14 03:43:47;;;;;;;5.03;1.52;;;4.70;99.90;;;;;;5054650;28;20020;-76
2023/01/14 03:46:14;;;;;;;8.70;2.13;;;4.70;99.90;;;;;;5065891;28;20099;-77
2023/01/14 03:48:41;;;;;;;8.23;1.77;;;4.70;99.90;;;;;;5047082;28;20024;-76
2023/01/14 03:51:29;;;;;;;3.83;1.30;;;4.70;99.90;;;;;;5058198;28;20033;-76
2023/01/14 03:54:24;;;;;;;5.35;1.60;;;4.60;99.90;;;;;;5065615;28;20032;-77
2023/01/14 03:57:12;;;;;;;7.10;2.17;;;4.60;99.90;;;;;;5066684;28;20028;-76
2023/01/14 03:59:45;;;;;;;7.85;1.92;;;4.60;99.90;;;;;;5050664;28;20029;-77
2023/01/14 04:02:12;;;;;;;6.57;1.65;;;4.70;99.90;;;;;;5066477;28;20919;-77
2023/01/14 04:04:39;;;;;;;9.70;2.30;;;4.70;99.90;;;;;;5042080;28;20501;-76
2023/01/14 04:07:05;;;;;;;12.05;2.08;;;4.70;99.90;;;;;;5067482;28;20045;-76
2023/01/14 04:09:31;;;;;;;6.78;1.58;;;4.70;99.90;;;;;;5067834;28;20473;-76
2023/01/14 04:11:58;;;;;;;7.15;1.90;;;4.70;99.90;;;;;;5067285;28;20037;-76
2023/01/14 04:17:08;;;;;;;10.95;1.88;;;4.60;99.90;;;;;;5067084;28;20077;-76
2023/01/14 04:19:34;;;;;;;9.55;2.70;;;4.60;99.90;;;;;;5067728;28;20029;-76
2023/01/14 04:22:00;;;;;;;11.95;2.05;;;4.60;99.90;;;;;;5066840;28;20039;-76
2023/01/14 04:24:26;;;;;;;7.15;1.40;;;4.60;99.90;;;;;;5052852;28;20025;-76
2023/01/14 04:26:52;;;;;;;14.10;2.45;;;4.70;99.90;;;;;;5067189;28;20033;-76
2023/01/14 04:29:18;;;;;;;9.68;1.80;;;4.70;99.90;;;;;;5054802;28;20029;-76
2023/01/14 04:31:44;;;;;;;9.32;1.75;;;4.60;99.90;;;;;;5050995;28;20029;-75
2023/01/14 04:34:10;;;;;;;7.82;1.77;;;4.60;99.90;;;;;;5062410;28;20115;-76
2023/01/14 04:36:36;;;;;;;6.78;1.73;;;4.60;99.90;;;;;;5067063;28;20039;-76
2023/01/14 04:39:01;;;;;;;9.63;1.77;;;4.60;99.90;;;;;;5067352;28;20032;-76
2023/01/14 04:44:11;;;;;;;3.40;1.20;;;4.60;99.90;;;;;;5067153;28;20114;-76
2023/01/14 04:46:37;;;;;;;7.10;1.58;;;4.60;99.90;;;;;;5067157;28;20035;-76
2023/01/14 04:49:03;;;;;;;8.80;3.05;;;4.60;99.90;;;;;;5067345;28;20050;-76
2023/01/14 04:51:29;;;;;;;7.28;1.60;;;4.60;99.90;;;;;;5066127;28;20031;-75
2023/01/14 04:53:55;;;;;;;5.60;1.90;;;4.60;99.90;;;;;;5066656;28;20029;-75
2023/01/14 04:56:21;;;;;;;15.00;2.00;;;4.60;99.90;;;;;;5070514;28;20067;-76
2023/01/14 04:58:47;;;;;;;12.43;1.73;;;4.60;99.90;;;;;;5052085;28;20032;-76
2023/01/14 05:01:13;;;;;;;10.50;1.75;;;4.60;99.90;;;;;;5065786;28;20040;-75
2023/01/14 05:03:39;;;;;;;6.43;1.48;;;4.60;99.90;;;;;;5063318;28;20641;-76
2023/01/14 05:06:06;;;;;;;7.45;1.58;;;4.60;99.90;;;;;;5068037;28;20031;-76
2023/01/14 05:08:31;;;;;;;6.78;1.20;;;4.60;99.90;;;;;;5066471;28;20484;-76
2023/01/14 05:10:57;;;;;;;8.18;1.55;;;4.60;99.90;;;;;;5065266;28;20039;-77
2023/01/14 05:13:23;;;;;;;10.00;1.65;;;4.50;99.90;;;;;;5066978;28;20074;-76
2023/01/14 05:15:50;;;;;;;6.90;1.38;;;4.50;99.90;;;;;;5069717;28;20039;-76
2023/01/14 05:18:16;;;;;;;11.10;1.90;;;4.50;99.90;;;;;;5054073;28;20051;-76
2023/01/14 05:20:43;;;;;;;6.97;1.88;;;4.50;99.90;;;;;;5066898;28;20025;-76
2023/01/14 05:23:13;;;;;;;5.22;1.42;;;4.50;99.90;;;;;;5064014;28;20034;-75
2023/01/14 05:25:39;;;;;;;6.25;1.60;;;4.50;99.90;;;;;;5068943;28;20046;-76
2023/01/14 05:28:09;;;;;;;6.63;1.92;;;4.50;99.90;;;;;;5067259;28;20078;-76
2023/01/14 05:30:35;;;;;;;6.68;1.35;;;4.50;99.90;;;;;;5052674;28;20032;-76
2023/01/14 05:33:01;;;;;;;6.95;1.38;;;4.50;99.90;;;;;;5069853;28;20066;-76
2023/01/14 05:35:27;;;;;;;12.60;1.90;;;4.50;99.90;;;;;;5069921;28;20797;-75
2023/01/14 05:37:53;;;;;;;7.47;1.65;;;4.50;99.90;;;;;;5057918;28;20421;-76
2023/01/14 05:40:19;;;;;;;8.52;1.65;;;4.50;99.90;;;;;;5069812;28;20033;-77
2023/01/14 05:45:49;;;;;;;6.57;1.30;;;4.50;99.90;;;;;;5067314;28;20134;-76
2023/01/14 05:48:16;;;;;;;12.07;1.93;;;4.50;99.90;;;;;;5060357;28;20052;-77
2023/01/14 05:50:43;;;;;;;12.27;2.47;;;4.50;99.90;;;;;;5067935;28;20259;-77
2023/01/14 05:53:09;;;;;;;8.80;1.40;;;4.50;99.90;;;;;;5057659;28;20119;-77
2023/01/14 05:55:36;;;;;;;8.65;1.67;;;4.40;99.90;;;;;;5069662;28;20034;-77
2023/01/14 05:58:04;;;;;;;9.65;1.65;;;4.40;99.90;;;;;;5069773;28;20595;-77
2023/01/14 06:06:23;;;;;;;8.27;1.60;;;4.40;99.90;;;;;;5066005;28;20025;-76
2023/01/14 06:08:51;;;;;;;7.32;1.30;;;4.40;99.90;;;;;;5047898;28;20250;-75
2023/01/14 06:11:19;;;;;;;7.40;1.48;;;4.50;99.90;;;;;;5069333;28;20086;-76
2023/01/14 06:13:46;;;;;;;4.65;1.35;;;4.40;99.90;;;;;;5068811;28;20572;-75
2023/01/14 06:16:12;;;;;;;6.22;1.48;;;4.40;99.90;;;;;;5066302;28;20489;-77
2023/01/14 06:18:41;;;;;;;9.90;1.77;;;4.40;99.90;;;;;;5069586;28;20044;-77
2023/01/14 06:21:10;;;;;;;5.45;1.40;;;4.40;99.90;;;;;;5054922;28;20037;-76
2023/01/14 06:23:36;;;;;;;6.03;1.17;;;4.40;99.90;;;;;;5068964;28;20380;-77
2023/01/14 06:26:02;;;;;;;8.25;1.38;;;4.40;99.90;;;;;;5069070;28;20128;-76
2023/01/14 06:28:31;;;;;;;6.93;1.90;;;4.30;99.90;;;;;;5069229;28;20123;-76
2023/01/14 06:30:57;;;;;;;12.40;1.88;;;4.30;99.90;;;;;;5046580;28;20509;-75
2023/01/14 06:33:23;;;;;;;8.93;1.20;;;4.40;99.90;;;;;;5051688;28;20052;-77
2023/01/14 06:35:49;;;;;;;6.65;1.55;;;4.30;99.90;;;;;;5073283;28;20108;-76
2023/01/14 06:38:15;;;;;;;10.45;2.53;;;4.30;99.90;;;;;;5051057;28;20025;-77
2023/01/14 06:40:42;;;;;;;9.15;2.03;;;4.30;99.90;;;;;;5068764;28;20481;-77
2023/01/14 06:43:08;;;;;;;13.00;2.78;;;4.30;99.90;;;;;;5068607;28;20052;-76
2023/01/14 06:45:35;;;;;;;13.65;2.42;;;4.30;99.90;;;;;;5068448;28;20376;-77
2023/01/14 06:48:01;;;;;;;8.90;1.73;;;4.30;99.90;;;;;;5065709;28;20515;-75
2023/01/14 06:50:27;;;;;;;7.75;1.80;;;4.30;99.90;;;;;;5056814;28;20028;-75
2023/01/14 06:52:53;;;;;;;10.15;1.40;;;4.30;99.90;;;;;;5068463;28;20025;-75
2023/01/14 06:55:20;;;;;;;9.52;1.98;;;4.30;99.90;;;;;;5068714;28;20056;-76
2023/01/14 06:57:47;;;;;;;7.60;2.03;;;4.30;99.90;;;;;;5051709;28;20035;-76
2023/01/14 07:00:14;;;;;;;11.80;1.90;;;4.30;99.90;;;;;;5068755;28;20059;-76
2023/01/14 07:02:58;;;;;;;3.85;1.67;;;4.40;99.90;;;;;;5052841;28;20706;-77
2023/01/14 07:05:24;;;;;;;14.18;1.77;;;4.30;99.90;;;;;;5068078;28;20025;-75
2023/01/14 07:07:50;;;;;;;8.45;1.55;;;4.30;99.90;;;;;;5066470;28;20032;-76
2023/01/14 07:10:17;;;;;;;9.52;1.40;;;4.30;99.90;;;;;;5056604;28;20082;-76
2023/01/14 07:12:48;;;;;;;10.23;1.42;;;4.30;99.90;;;;;;5068601;28;20028;-77
2023/01/14 07:15:16;;;;;;;6.47;1.58;;;4.30;99.90;;;;;;5068060;28;20120;-76
2023/01/14 07:17:44;;;;;;;9.45;1.38;;;4.30;99.90;;;;;;5058098;28;20032;-76
2023/01/14 07:20:10;;;;;;;7.22;1.75;;;4.20;99.90;;;;;;5054552;28;20028;-76
2023/01/14 07:22:36;;;;;;;5.15;1.40;;;4.20;99.90;;;;;;5056085;28;20044;-77
2023/01/14 07:25:02;;;;;;;7.88;1.20;;;4.20;99.90;;;;;;5068162;28;20509;-77
2023/01/14 07:27:29;;;;;;;5.95;1.80;;;4.20;99.90;;;;;;5068122;28;20052;-75
2023/01/14 07:29:56;;;;;;;4.43;1.23;;;4.20;99.90;;;;;;5068382;28;20043;-76
2023/01/14 07:32:22;;;;;;;16.00;2.53;;;4.20;99.90;;;;;;5062178;28;20033;-77
2023/01/14 07:34:49;;;;;;;9.43;1.45;;;4.20;99.90;;;;;;5049169;28;20675;-76
2023/01/14 07:37:16;;;;;;;5.93;1.80;;;4.20;99.90;;;;;;5065541;28;20035;-75
2023/01/14 07:39:43;;;;;;;8.35;1.30;;;4.20;99.90;;;;;;5054313;28;20029;-78
2023/01/14 07:42:09;;;;;;;8.40;1.27;;;4.20;99.90;;;;;;5067758;28;20020;-76
2023/01/14 07:44:35;;;;;;;9.27;1.75;;;4.20;99.90;;;;;;5045075;28;20028;-77
2023/01/14 07:47:02;;;;;;;8.68;2.38;;;4.20;99.90;;;;;;5065111;28;20029;-77
2023/01/14 07:49:28;;;;;;;14.73;3.42;;;4.20;99.90;;;;;;5069021;28;20424;-76
2023/01/14 07:51:54;;;;;;;5.28;1.40;;;4.30;99.90;;;;;;5068208;28;20484;-76
2023/01/14 07:54:20;;;;;;;9.32;1.48;;;4.30;99.90;;;;;;5065330;28;20029;-76
2023/01/14 07:56:49;;;;;;;9.40;2.15;;;4.30;99.90;;;;;;5048710;28;20122;-76
2023/01/14 07:59:16;;;;;;;7.75;1.73;;;4.40;99.90;;;;;;5048301;28;20032;-76
2023/01/14 08:01:42;;;;;;;9.80;1.67;;;4.40;99.90;;;;;;5064393;28;20053;-77
2023/01/14 08:04:08;;;;;;;11.43;1.50;;;4.40;99.90;;;;;;5067940;28;20085;-77
2023/01/14 08:06:34;;;;;;;9.10;1.38;;;4.50;99.90;;;;;;5051534;28;20047;-76
2023/01/14 08:09:01;;;;;;;8.52;2.00;;;4.50;99.90;;;;;;5067642;28;20469;-77
2023/01/14 08:11:29;;;;;;;16.30;2.08;;;4.60;99.90;;;;;;5067518;28;20033;-76
2023/01/14 08:13:55;;;;;;;8.55;1.70;;;4.60;99.90;;;;;;5063525;28;20032;-76
2023/01/14 08:16:21;;;;;;;7.80;1.90;;;4.70;99.90;;;;;;5067599;28;20048;-77
2023/01/14 08:18:48;;;;;;;8.52;1.50;;;4.70;99.90;;;;;;5064536;28;20021;-77
2023/01/14 08:21:14;;;;;;;5.32;1.65;;;4.70;99.90;;;;;;5067500;28;20032;-76
2023/01/14 08:23:40;;;;;;;7.05;1.20;;;4.60;99.90;;;;;;5053536;28;20020;-76
2023/01/14 08:26:09;;;;;;;5.88;1.40;;;4.60;99.90;;;;;;5067213;28;20025;-76
2023/01/14 08:28:36;;;;;;;7.20;1.63;;;4.60;99.90;;;;;;5067624;28;20043;-76
2023/01/14 08:31:11;;;;;;;12.65;1.65;;;4.60;99.90;;;;;;5072150;28;20039;-76
2023/01/14 08:33:37;;;;;;;7.80;1.70;;;4.60;99.90;;;;;;5066077;28;20077;-76
2023/01/14 08:36:06;;;;;;;13.13;1.88;;;4.70;99.90;;;;;;5067339;28;20508;-76
2023/01/14 08:38:34;;;;;;;11.57;1.55;;;4.80;99.90;;;;;;5070731;28;20041;-76
2023/01/14 08:41:08;;;;;;;10.38;1.58;;;4.90;99.90;;;;;;5070840;28;20032;-76
2023/01/14 08:43:35;;;;;;;9.35;1.60;;;4.80;99.90;;;;;;5067448;28;20017;-76
2023/01/14 08:46:01;;;;;;;9.02;1.38;;;4.90;99.90;;;;;;5068775;28;20039;-76
2023/01/14 08:48:28;;;;;;;6.10;1.67;;;4.80;99.90;;;;;;5052593;28;20021;-76
2023/01/14 08:50:57;;;;;;;5.75;1.30;;;4.90;99.90;;;;;;5068402;28;20067;-76
2023/01/14 08:53:23;;;;;;;8.57;1.40;;;4.90;99.90;;;;;;5051090;28;20572;-77
2023/01/14 08:55:49;;;;;;;5.78;1.42;;;4.80;99.90;;;;;;5049609;28;20123;-76
2023/01/14 08:58:14;;;;;;;10.90;1.25;;;4.90;99.90;;;;;;5067760;28;20032;-76
2023/01/14 09:00:40;;;;;;;7.43;1.52;;;4.90;99.90;;;;;;5063112;28;20057;-76
2023/01/14 09:03:06;;;;;;;5.03;1.02;;;4.90;99.90;;;;;;5065700;28;20028;-77
2023/01/14 09:05:34;;;;;;;4.60;1.38;;;4.90;99.90;;;;;;5048728;28;20483;-76
2023/01/14 09:19:04;;;;;;;6.80;1.20;;;5.10;99.90;;;;;;5065500;28;20107;-76
2023/01/14 09:21:29;;;;;;;7.82;1.13;;;5.20;99.90;;;;;;5052974;28;20121;-76
2023/01/14 09:23:55;;;;;;;3.53;1.13;;;5.20;99.90;;;;;;5053087;28;20132;-77
2023/01/14 09:26:21;;;;;;;5.97;1.10;;;5.30;99.90;;;;;;5053196;28;20476;-77
2023/01/14 09:28:47;;;;;;;7.78;1.13;;;5.30;99.90;;;;;;5064162;28;20032;-77
2023/01/14 09:31:13;;;;;;;5.68;1.13;;;5.40;99.90;;;;;;5054928;28;20585;-77
2023/01/14 09:33:39;;;;;;;7.00;1.00;;;5.50;99.90;;;;;;5052502;28;20055;-76
2023/01/14 09:36:05;;;;;;;6.20;1.20;;;5.50;99.90;;;;;;5064831;28;20624;-77
2023/01/14 09:38:31;;;;;;;6.82;1.23;;;5.60;99.90;;;;;;5051488;28;20044;-76
2023/01/14 09:40:57;;;;;;;4.75;1.50;;;5.60;99.90;;;;;;5068283;28;20028;-77
2023/01/14 09:43:24;;;;;;;4.22;1.88;;;5.60;99.90;;;;;;5070317;28;20488;-77
2023/01/14 09:45:58;;;;;;;6.18;1.10;;;5.60;99.90;;;;;;5067903;28;20107;-77
2023/01/14 09:48:29;;;;;;;6.53;1.13;;;5.70;99.90;;;;;;5066810;28;20028;-77
2023/01/14 09:51:16;;;;;;;6.68;2.45;;;5.70;99.90;;;;;;5069166;28;20067;-77
2023/01/14 09:54:04;;;;;;;7.40;1.20;;;5.70;99.90;;;;;;5064930;28;20024;-77
2023/01/14 09:56:45;;;;;;;8.73;1.70;;;5.80;99.90;;;;;;5065167;28;20044;-77
2023/01/14 09:59:38;;;;;;;3.47;0.80;;;5.90;99.90;;;;;;5067724;28;20373;-77
2023/01/14 10:02:37;;;;;;;5.32;1.40;;;5.90;99.90;;;;;;5060015;28;20048;-77
2023/01/14 10:05:21;;;;;;;4.80;1.10;;;5.90;99.90;;;;;;5067724;28;20374;-77
2023/01/14 10:07:48;;;;;;;6.57;1.40;;;5.90;99.90;;;;;;5053052;28;20024;-78
2023/01/14 10:10:31;;;;;;;5.30;1.52;;;6.00;99.90;;;;;;5061373;28;20028;-78
2023/01/14 10:13:02;;;;;;;8.10;1.95;;;6.00;99.90;;;;;;5068317;28;20040;-78
2023/01/14 10:15:37;;;;;;;7.35;2.13;;;6.00;99.90;;;;;;5070983;28;20033;-77
2023/01/14 10:18:20;;;;;;;7.05;1.10;;;6.00;99.90;;;;;;5070784;28;20059;-78
2023/01/14 10:20:53;;;;;;;3.85;0.98;;;6.00;99.90;;;;;;5068686;28;20051;-78
2023/01/14 10:23:36;;;;;;;4.85;0.90;;;6.00;99.90;;;;;;5066498;28;20373;-78
2023/01/14 10:26:16;;;;;;;5.78;1.20;;;6.10;99.90;;;;;;5070401;28;20112;-78
2023/01/14 10:28:45;;;;;;;5.43;0.85;;;6.10;99.90;;;;;;5060156;28;20033;-78
2023/01/14 10:31:33;;;;;;;7.50;1.02;;;6.20;99.90;;;;;;5068017;28;20028;-78
2023/01/14 10:34:00;;;;;;;7.10;1.20;;;6.20;99.90;;;;;;5070745;28;20506;-78
2023/01/14 10:36:30;;;;;;;8.05;1.83;;;6.20;99.90;;;;;;5070438;28;20638;-78
2023/01/14 10:38:58;;;;;;;3.75;0.70;;;6.30;99.90;;;;;;5056947;28;20037;-77
2023/01/14 10:44:17;;;;;;;6.18;0.98;;;6.40;99.90;;;;;;5057754;28;20029;-77
2023/01/14 10:46:45;;;;;;;8.43;1.98;;;6.40;99.90;;;;;;5068895;28;20021;-77
2023/01/14 10:49:14;;;;;;;5.45;1.20;;;6.40;99.90;;;;;;5070573;28;20124;-77
2023/01/14 10:51:50;;;;;;;5.03;1.10;;;6.40;99.90;;;;;;5069558;28;20024;-77
2023/01/14 10:54:19;;;;;;;4.85;1.13;;;6.40;99.90;;;;;;5068147;28;20024;-77
2023/01/14 10:56:52;;;;;;;12.23;1.83;;;6.40;99.90;;;;;;5042050;28;20032;-78
2023/01/14 10:59:48;;;;;;;4.05;1.55;;;6.40;99.90;;;;;;5050926;28;20020;-77
2023/01/14 11:02:39;;;;;;;2.22;0.93;;;6.30;99.90;;;;;;5040045;28;20040;-77
2023/01/14 11:05:22;;;;;;;6.93;1.00;;;6.30;99.90;;;;;;5045474;28;20048;-77
2023/01/14 11:07:51;;;;;;;4.18;0.95;;;6.30;99.90;;;;;;5066698;28;20453;-77
2023/01/14 11:10:29;;;;;;;4.40;0.98;;;6.30;99.90;;;;;;5068511;28;20552;-77
2023/01/14 11:13:33;;;;;;;5.25;1.05;;;6.40;99.90;;;;;;5067161;28;20052;-77
2023/01/14 11:16:00;;;;;;;4.25;1.30;;;6.40;99.90;;;;;;5025550;28;20852;-77
2023/01/14 11:18:26;;;;;;;3.40;1.10;;;6.50;99.90;;;;;;5009631;28;20136;-78
2023/01/14 11:21:15;;;;;;;3.50;1.08;;;6.60;99.90;;;;;;5045895;28;20047;-77
2023/01/14 11:23:44;;;;;;;6.63;0.80;;;6.60;99.90;;;;;;5067536;28;20025;-77
2023/01/14 11:26:32;;;;;;;5.60;1.88;;;6.60;99.90;;;;;;5068278;28;20020;-77
2023/01/14 11:29:16;;;;;;;3.60;1.20;;;6.70;99.90;;;;;;5068283;28;20097;-77
2023/01/14 11:31:45;;;;;;;5.68;1.73;;;6.70;99.90;;;;;;5060099;28;20115;-77
2023/01/14 11:34:35;;;;;;;5.97;1.30;;;6.70;99.90;;;;;;5068310;28;20120;-77
2023/01/14 11:37:10;;;;;;;7.72;1.30;;;6.80;99.90;;;;;;5052563;28;20040;-78
2023/01/14 11:39:38;;;;;;;6.78;1.38;;;6.80;99.90;;;;;;5067246;28;20020;-77
2023/01/14 11:42:43;;;;;;;3.97;0.90;;;6.80;99.90;;;;;;5067981;28;20037;-77
2023/01/14 11:45:11;;;;;;;3.03;0.98;;;6.80;99.90;;;;;;5005458;28;20044;-78
2023/01/14 11:47:49;;;;;;;8.15;1.10;;;6.90;99.90;;;;;;5006107;28;20054;-77
2023/01/14 11:50:25;;;;;;;6.53;1.02;;;6.80;99.90;;;;;;5034958;28;20527;-77
2023/01/14 11:53:04;;;;;;;7.20;1.40;;;6.90;99.90;;;;;;5064792;28;20511;-78
2023/01/14 11:55:36;;;;;;;8.40;1.20;;;6.80;99.90;;;;;;5062628;28;20020;-77
2023/01/14 11:58:25;;;;;;;3.05;1.10;;;6.90;99.90;;;;;;5066517;28;20024;-78
2023/01/14 12:01:00;;;;;;;3.60;1.10;;;6.90;99.90;;;;;;5068120;28;20028;-77
2023/01/14 12:03:32;;;;;;;;;;;6.90;99.90;;;;;;5067148;28;20050;-78
2023/01/14 12:05:59;;;;;;;4.63;1.10;;;6.90;99.90;;;;;;5069546;28;19908;-77
2023/01/14 12:08:29;;;;;;;4.32;1.90;;;6.90;99.90;;;;;;5066760;28;20024;-77
2023/01/14 12:10:59;;;;;;;7.10;1.02;;;6.90;99.90;;;;;;5071810;28;20033;-78
2023/01/14 12:16:56;;;;;;;4.80;1.17;;;6.90;99.90;;;;;;5069933;28;20527;-77
2023/01/14 12:19:41;;;;;;;5.18;0.90;;;7.00;99.90;;;;;;5076074;28;20923;-77
2023/01/14 12:22:28;;;;;;;5.38;1.10;;;7.00;99.90;;;;;;5047180;28;20036;-77
2023/01/14 12:25:19;;;;;;;4.80;1.52;;;7.10;99.90;;;;;;5064093;28;20032;-77
2023/01/14 12:27:48;;;;;;;3.70;1.08;;;7.10;99.90;;;;;;5063518;28;20035;-77
2023/01/14 12:30:43;;;;;;;3.80;0.90;;;7.10;99.90;;;;;;5070367;28;20066;-77
2023/01/14 12:33:09;;;;;;;4.82;0.85;;;7.20;99.90;;;;;;5073349;28;20751;-78
2023/01/14 12:36:12;;;;;;;3.88;0.90;;;7.20;99.90;;;;;;5064275;28;20025;-77
2023/01/14 12:47:48;;;;;;;5.80;1.23;;;7.10;99.90;;;;;;5073547;28;20029;-78
2023/01/14 12:50:15;;;;;;;4.55;0.80;;;7.10;99.90;;;;;;5067952;28;20493;-77
2023/01/14 12:52:53;;;;;;;5.18;1.17;;;7.10;99.90;;;;;;5072803;28;20041;-77
2023/01/14 12:55:22;;;;;;;3.20;0.77;;;7.10;99.90;;;;;;5070083;28;20028;-77
2023/01/14 12:57:52;;;;;;;3.13;0.85;;;7.10;99.90;;;;;;5076648;28;20019;-76
2023/01/14 13:00:24;;;;;;;3.72;1.05;;;7.10;99.90;;;;;;5067195;28;20513;-76
2023/01/14 13:02:53;;;;;;;5.78;1.00;;;7.20;99.90;;;;;;5072475;28;20130;-76
2023/01/14 13:05:28;;;;;;;2.28;0.85;;;7.10;99.90;;;;;;5069938;28;20034;-76
2023/01/14 13:07:58;;;;;;;4.88;1.00;;;7.10;99.90;;;;;;5073217;28;20025;-75
2023/01/14 13:10:35;;;;;;;3.88;0.75;;;7.20;99.90;;;;;;5072269;28;20242;-76
2023/01/14 13:13:19;;;;;;;3.63;1.10;;;7.20;99.90;;;;;;5070466;28;20079;-76
2023/01/14 13:15:45;;;;;;;4.00;1.08;;;7.20;99.90;;;;;;5064523;28;20031;-76
2023/01/14 13:18:33;;;;;;;5.00;0.90;;;7.20;99.90;;;;;;5042639;28;20025;-75
2023/01/14 13:21:00;;;;;;;2.83;0.90;;;7.30;99.90;;;;;;5062059;28;20056;-77
2023/01/14 13:23:44;;;;;;;2.63;0.60;;;7.30;99.90;;;;;;5059053;28;20112;-77
2023/01/14 13:26:28;;;;;;;1.35;0.63;;;7.20;99.90;;;;;;5044543;28;20829;-77
2023/01/14 13:29:19;;;;;;;3.65;1.15;;;7.20;99.90;;;;;;5055454;28;20356;-77
2023/01/14 13:31:46;;;;;;;3.47;1.20;;;7.20;99.90;;;;;;5070288;28;20052;-76
2023/01/14 13:34:21;;;;;;;4.43;0.90;;;7.20;99.90;;;;;;5068886;28;20079;-75
2023/01/14 13:37:15;;;;;;;2.53;1.00;;;7.20;99.90;;;;;;5066293;28;20035;-78
2023/01/14 13:39:51;;;;;;;4.95;0.90;;;7.20;99.90;;;;;;5054557;28;20056;-78
2023/01/14 13:42:24;;;;;;;3.63;0.80;;;7.20;99.90;;;;;;5063449;28;20027;-77
2023/01/14 13:44:52;;;;;;;1.92;0.70;;;7.20;99.90;;;;;;5064590;28;20048;-77
2023/01/14 13:47:27;;;;;;;5.00;1.20;;;7.20;99.90;;;;;;5064614;28;20021;-77
2023/01/14 13:50:05;;;;;;;7.70;1.40;;;7.20;99.90;;;;;;5049198;28;20048;-77
2023/01/14 13:52:37;;;;;;;6.00;1.25;;;7.20;99.90;;;;;;5066314;28;20024;-76
2023/01/14 13:55:25;;;;;;;2.95;1.75;;;7.20;99.90;;;;;;5062279;28;20055;-77
2023/01/14 13:57:54;;;;;;;2.53;1.13;;;7.20;99.90;;;;;;5064164;28;20037;-77
2023/01/14 14:00:20;;;;;;;3.45;1.23;;;7.20;99.90;;;;;;5066487;28;20735;-77
2023/01/14 14:03:24;;;;;;;6.80;1.13;;;7.20;99.90;;;;;;5058785;28;20033;-77